sensor_id;sensor_type;location;lat;lon;timestamp;temperature;humidity
7512;DHT22;9999;48.780;9.146;2022-07-24T00:02:12;22.50;99.90
7512;DHT22;9999;48.780;9.146;2022-07-24T00:04:39;22.40;99.90
7512;DHT22;9999;48.780;9.146;2022-07-24T00:07:06;22.30;99.90
7512;DHT22;9999;48.780;9.146;2022-07-24T00:09:32;22.20;99.90
7512;DHT22;9999;48.780;9.146;2022-07-24T00:11:59;22.20;99.90
7512;DHT22;9999;48.780;9.146;2022-07-24T00:14:26;22.20;99.90
7512;DHT22;9999;48.780;9.146;2022-07-24T00:16:53;22.30;99.90
7512;DHT22;9999;48.780;9.146;2022-07-24T00:19:21;22.40;99.90
7512;DHT22;9999;48.780;9.146;2022-07-24T00:21:48;22.40;99.90
7512;DHT22;9999;48.780;9.146;2022-07-24T00:24:15;22.50;99.90
7512;DHT22;9999;48.780;9.146;2022-07-24T00:26:42;22.40;99.90
7512;DHT22;9999;48.780;9.146;2022-07-24T00:29:08;22.40;99.90
7512;DHT22;9999;48.780;9.146;2022-07-24T00:31:35;22.40;99.90
7512;DHT22;9999;48.780;9.146;2022-07-24T00:34:02;22.30;99.90
7512;DHT22;9999;48.780;9.146;2022-07-24T00:36:30;22.30;99.90
7512;DHT22;9999;48.780;9.146;2022-07-24T00:38:57;22.20;99.90
7512;DHT22;9999;48.780;9.146;2022-07-24T00:41:24;22.20;99.90
7512;DHT22;9999;48.780;9.146;2022-07-24T00:43:59;22.20;99.90
7512;DHT22;9999;48.780;9.146;2022-07-24T00:46:26;22.20;99.90
7512;DHT22;9999;48.780;9.146;2022-07-24T00:48:53;22.20;99.90
7512;DHT22;9999;48.780;9.146;2022-07-24T00:51:20;22.20;99.90
7512;DHT22;9999;48.780;9.146;2022-07-24T00:53:48;22.20;99.90
7512;DHT22;9999;48.780;9.146;2022-07-24T00:56:15;22.20;99.90
7512;DHT22;9999;48.780;9.146;2022-07-24T00:58:42;22.20;99.90
7512;DHT22;9999;48.780;9.146;2022-07-24T01:01:09;22.20;99.90
7512;DHT22;9999;48.780;9.146;2022-07-24T01:03:35;22.20;99.90
7512;DHT22;9999;48.780;9.146;2022-07-24T01:06:02;22.20;99.90
7512;DHT22;9999;48.780;9.146;2022-07-24T01:08:29;22.30;99.90
7512;DHT22;9999;48.780;9.146;2022-07-24T01:10:57;22.20;99.90
7512;DHT22;9999;48.780;9.146;2022-07-24T01:13:24;22.30;99.90
7512;DHT22;9999;48.780;9.146;2022-07-24T01:15:51;22.30;99.90
7512;DHT22;9999;48.780;9.146;2022-07-24T01:18:18;22.20;99.90
7512;DHT22;9999;48.780;9.146;2022-07-24T01:20:47;22.20;99.90
7512;DHT22;9999;48.780;9.146;2022-07-24T01:23:14;22.20;99.90
7512;DHT22;9999;48.780;9.146;2022-07-24T01:25:42;22.20;99.90
7512;DHT22;9999;48.780;9.146;2022-07-24T01:28:09;22.10;99.90
7512;DHT22;9999;48.780;9.146;2022-07-24T01:30:36;22.10;99.90
7512;DHT22;9999;48.780;9.146;2022-07-24T01:33:02;22.10;99.90
7512;DHT22;9999;48.780;9.146;2022-07-24T01:35:29;22.10;99.90
7512;DHT22;9999;48.780;9.146;2022-07-24T01:37:57;22.10;99.90
7512;DHT22;9999;48.780;9.146;2022-07-24T01:40:24;22.10;99.90
7512;DHT22;9999;48.780;9.146;2022-07-24T01:42:51;22.10;99.90
7512;DHT22;9999;48.780;9.146;2022-07-24T01:45:19;22.10;99.90
7512;DHT22;9999;48.780;9.146;2022-07-24T01:47:46;22.00;99.90
7512;DHT22;9999;48.780;9.146;2022-07-24T01:50:13;22.10;99.90
7512;DHT22;9999;48.780;9.146;2022-07-24T01:52:40;22.10;99.90
7512;DHT22;9999;48.780;9.146;2022-07-24T01:55:09;22.00;99.90
7512;DHT22;9999;48.780;9.146;2022-07-24T01:57:36;22.00;99.90
7512;DHT22;9999;48.780;9.146;2022-07-24T02:00:05;21.90;99.90
7512;DHT22;9999;48.780;9.146;2022-07-24T02:02:39;21.90;99.90
7512;DHT22;9999;48.780;9.146;2022-07-24T02:05:07;21.90;99.90
7512;DHT22;9999;48.780;9.146;2022-07-24T02:07:34;21.80;99.90
7512;DHT22;9999;48.780;9.146;2022-07-24T02:10:01;21.80;99.90
7512;DHT22;9999;48.780;9.146;2022-07-24T02:12:29;21.80;99.90
7512;DHT22;9999;48.780;9.146;2022-07-24T02:14:56;21.80;99.90
7512;DHT22;9999;48.780;9.146;2022-07-24T02:17:23;21.70;99.90
7512;DHT22;9999;48.780;9.146;2022-07-24T02:19:50;21.70;99.90
7512;DHT22;9999;48.780;9.146;2022-07-24T02:22:17;21.70;99.90
7512;DHT22;9999;48.780;9.146;2022-07-24T02:24:43;21.70;99.90
7512;DHT22;9999;48.780;9.146;2022-07-24T02:27:10;21.60;99.90
7512;DHT22;9999;48.780;9.146;2022-07-24T02:29:38;21.60;99.90
7512;DHT22;9999;48.780;9.146;2022-07-24T02:32:06;21.60;99.90
7512;DHT22;9999;48.780;9.146;2022-07-24T02:34:33;21.60;99.90
7512;DHT22;9999;48.780;9.146;2022-07-24T02:37:00;21.60;99.90
7512;DHT22;9999;48.780;9.146;2022-07-24T02:39:27;21.50;99.90
7512;DHT22;9999;48.780;9.146;2022-07-24T02:41:54;21.40;99.90
7512;DHT22;9999;48.780;9.146;2022-07-24T02:44:20;21.40;99.90
7512;DHT22;9999;48.780;9.146;2022-07-24T02:46:48;21.40;99.90
7512;DHT22;9999;48.780;9.146;2022-07-24T02:49:15;21.40;99.90
7512;DHT22;9999;48.780;9.146;2022-07-24T02:51:42;21.40;99.90
7512;DHT22;9999;48.780;9.146;2022-07-24T02:54:09;21.30;99.90
7512;DHT22;9999;48.780;9.146;2022-07-24T02:56:36;21.30;99.90
7512;DHT22;9999;48.780;9.146;2022-07-24T02:59:02;21.20;99.90
7512;DHT22;9999;48.780;9.146;2022-07-24T03:01:29;21.20;99.90
7512;DHT22;9999;48.780;9.146;2022-07-24T03:03:57;21.20;99.90
7512;DHT22;9999;48.780;9.146;2022-07-24T03:06:24;21.20;99.90
7512;DHT22;9999;48.780;9.146;2022-07-24T03:08:51;21.20;99.90
7512;DHT22;9999;48.780;9.146;2022-07-24T03:11:18;21.20;99.90
7512;DHT22;9999;48.780;9.146;2022-07-24T03:13:44;21.20;99.90
7512;DHT22;9999;48.780;9.146;2022-07-24T03:16:11;21.10;99.90
7512;DHT22;9999;48.780;9.146;2022-07-24T03:18:38;21.10;99.90
7512;DHT22;9999;48.780;9.146;2022-07-24T03:21:08;21.00;99.90
7512;DHT22;9999;48.780;9.146;2022-07-24T03:23:34;21.00;99.90
7512;DHT22;9999;48.780;9.146;2022-07-24T03:26:01;21.00;99.90
7512;DHT22;9999;48.780;9.146;2022-07-24T03:28:28;21.00;99.90
7512;DHT22;9999;48.780;9.146;2022-07-24T03:30:55;21.00;99.90
7512;DHT22;9999;48.780;9.146;2022-07-24T03:33:22;21.00;99.90
7512;DHT22;9999;48.780;9.146;2022-07-24T03:35:49;21.00;99.90
7512;DHT22;9999;48.780;9.146;2022-07-24T03:38:19;20.90;99.90
7512;DHT22;9999;48.780;9.146;2022-07-24T03:40:49;20.90;99.90
7512;DHT22;9999;48.780;9.146;2022-07-24T03:43:16;20.90;99.90
7512;DHT22;9999;48.780;9.146;2022-07-24T03:45:43;20.90;99.90
7512;DHT22;9999;48.780;9.146;2022-07-24T03:48:10;20.80;99.90
7512;DHT22;9999;48.780;9.146;2022-07-24T03:50:36;20.80;99.90
7512;DHT22;9999;48.780;9.146;2022-07-24T03:53:03;20.80;99.90
7512;DHT22;9999;48.780;9.146;2022-07-24T03:55:31;20.80;99.90
7512;DHT22;9999;48.780;9.146;2022-07-24T03:57:58;20.80;99.90
7512;DHT22;9999;48.780;9.146;2022-07-24T04:00:25;20.80;99.90
7512;DHT22;9999;48.780;9.146;2022-07-24T04:02:51;20.80;99.90
7512;DHT22;9999;48.780;9.146;2022-07-24T04:05:18;20.80;99.90
7512;DHT22;9999;48.780;9.146;2022-07-24T04:07:45;20.70;99.90
7512;DHT22;9999;48.780;9.146;2022-07-24T04:10:12;20.70;99.90
7512;DHT22;9999;48.780;9.146;2022-07-24T04:12:40;20.70;99.90
7512;DHT22;9999;48.780;9.146;2022-07-24T04:15:07;20.70;99.90
7512;DHT22;9999;48.780;9.146;2022-07-24T04:17:37;20.60;99.90
7512;DHT22;9999;48.780;9.146;2022-07-24T04:20:05;20.60;99.90
7512;DHT22;9999;48.780;9.146;2022-07-24T04:22:32;20.60;99.90
7512;DHT22;9999;48.780;9.146;2022-07-24T04:24:59;20.60;99.90
7512;DHT22;9999;48.780;9.146;2022-07-24T04:27:26;20.50;99.90
7512;DHT22;9999;48.780;9.146;2022-07-24T04:29:54;20.50;99.90
7512;DHT22;9999;48.780;9.146;2022-07-24T04:32:21;20.60;99.90
7512;DHT22;9999;48.780;9.146;2022-07-24T04:34:47;20.60;99.90
7512;DHT22;9999;48.780;9.146;2022-07-24T04:37:14;20.60;99.90
7512;DHT22;9999;48.780;9.146;2022-07-24T04:39:41;20.60;99.90
7512;DHT22;9999;48.780;9.146;2022-07-24T04:42:08;20.70;99.90
7512;DHT22;9999;48.780;9.146;2022-07-24T04:44:34;20.70;99.90
7512;DHT22;9999;48.780;9.146;2022-07-24T04:47:03;20.60;99.90
7512;DHT22;9999;48.780;9.146;2022-07-24T04:49:29;20.60;99.90
7512;DHT22;9999;48.780;9.146;2022-07-24T04:51:56;20.60;99.90
7512;DHT22;9999;48.780;9.146;2022-07-24T04:54:23;20.60;99.90
7512;DHT22;9999;48.780;9.146;2022-07-24T04:56:50;20.70;99.90
7512;DHT22;9999;48.780;9.146;2022-07-24T04:59:16;20.70;99.90
7512;DHT22;9999;48.780;9.146;2022-07-24T05:01:43;20.70;99.90
7512;DHT22;9999;48.780;9.146;2022-07-24T05:04:11;20.70;99.90
7512;DHT22;9999;48.780;9.146;2022-07-24T05:06:39;20.70;99.90
7512;DHT22;9999;48.780;9.146;2022-07-24T05:09:05;20.60;99.90
7512;DHT22;9999;48.780;9.146;2022-07-24T05:11:32;20.60;99.90
7512;DHT22;9999;48.780;9.146;2022-07-24T05:13:59;20.60;99.90
7512;DHT22;9999;48.780;9.146;2022-07-24T05:16:26;20.60;99.90
7512;DHT22;9999;48.780;9.146;2022-07-24T05:18:53;20.70;99.90
7512;DHT22;9999;48.780;9.146;2022-07-24T05:21:21;20.60;99.90
7512;DHT22;9999;48.780;9.146;2022-07-24T05:23:48;20.60;99.90
7512;DHT22;9999;48.780;9.146;2022-07-24T05:26:15;20.50;99.90
7512;DHT22;9999;48.780;9.146;2022-07-24T05:28:41;20.60;99.90
7512;DHT22;9999;48.780;9.146;2022-07-24T05:31:08;20.60;99.90
7512;DHT22;9999;48.780;9.146;2022-07-24T05:33:35;20.70;99.90
7512;DHT22;9999;48.780;9.146;2022-07-24T05:36:02;20.60;99.90
7512;DHT22;9999;48.780;9.146;2022-07-24T05:38:31;20.60;99.90
7512;DHT22;9999;48.780;9.146;2022-07-24T05:40:58;20.70;99.90
7512;DHT22;9999;48.780;9.146;2022-07-24T05:43:24;20.70;99.90
7512;DHT22;9999;48.780;9.146;2022-07-24T05:45:51;20.80;99.90
7512;DHT22;9999;48.780;9.146;2022-07-24T05:48:18;20.70;99.90
7512;DHT22;9999;48.780;9.146;2022-07-24T05:50:45;20.70;99.90
7512;DHT22;9999;48.780;9.146;2022-07-24T05:53:11;20.80;99.90
7512;DHT22;9999;48.780;9.146;2022-07-24T05:55:39;20.90;99.90
7512;DHT22;9999;48.780;9.146;2022-07-24T05:58:06;20.90;99.90
7512;DHT22;9999;48.780;9.146;2022-07-24T06:00:33;21.00;99.90
7512;DHT22;9999;48.780;9.146;2022-07-24T06:03:00;21.00;99.90
7512;DHT22;9999;48.780;9.146;2022-07-24T06:05:26;21.00;99.90
7512;DHT22;9999;48.780;9.146;2022-07-24T06:07:53;21.10;99.90
7512;DHT22;9999;48.780;9.146;2022-07-24T06:10:20;21.10;99.90
7512;DHT22;9999;48.780;9.146;2022-07-24T06:12:48;21.20;99.90
7512;DHT22;9999;48.780;9.146;2022-07-24T06:15:15;21.30;99.90
7512;DHT22;9999;48.780;9.146;2022-07-24T06:17:42;21.30;99.90
7512;DHT22;9999;48.780;9.146;2022-07-24T06:20:10;21.40;99.90
7512;DHT22;9999;48.780;9.146;2022-07-24T06:22:39;21.50;99.90
7512;DHT22;9999;48.780;9.146;2022-07-24T06:25:06;21.60;99.90
7512;DHT22;9999;48.780;9.146;2022-07-24T06:27:33;21.80;99.90
7512;DHT22;9999;48.780;9.146;2022-07-24T06:30:12;21.90;99.90
7512;DHT22;9999;48.780;9.146;2022-07-24T06:32:39;22.10;99.90
7512;DHT22;9999;48.780;9.146;2022-07-24T06:35:06;22.20;99.90
7512;DHT22;9999;48.780;9.146;2022-07-24T06:37:33;22.30;99.90
7512;DHT22;9999;48.780;9.146;2022-07-24T06:40:04;22.40;99.90
7512;DHT22;9999;48.780;9.146;2022-07-24T06:42:31;22.70;99.90
7512;DHT22;9999;48.780;9.146;2022-07-24T06:44:57;22.80;99.90
7512;DHT22;9999;48.780;9.146;2022-07-24T06:47:26;22.80;99.90
7512;DHT22;9999;48.780;9.146;2022-07-24T06:49:53;23.00;99.90
7512;DHT22;9999;48.780;9.146;2022-07-24T06:52:19;23.20;99.90
7512;DHT22;9999;48.780;9.146;2022-07-24T06:54:47;23.40;99.90
7512;DHT22;9999;48.780;9.146;2022-07-24T06:57:14;23.50;99.90
7512;DHT22;9999;48.780;9.146;2022-07-24T06:59:42;23.70;99.90
7512;DHT22;9999;48.780;9.146;2022-07-24T07:02:09;23.90;99.90
7512;DHT22;9999;48.780;9.146;2022-07-24T07:04:37;24.10;99.90
7512;DHT22;9999;48.780;9.146;2022-07-24T07:07:04;24.30;99.90
7512;DHT22;9999;48.780;9.146;2022-07-24T07:09:30;24.40;99.90
7512;DHT22;9999;48.780;9.146;2022-07-24T07:11:57;24.60;99.90
7512;DHT22;9999;48.780;9.146;2022-07-24T07:14:24;24.80;99.90
7512;DHT22;9999;48.780;9.146;2022-07-24T07:16:50;25.10;99.90
7512;DHT22;9999;48.780;9.146;2022-07-24T07:19:17;25.40;99.90
7512;DHT22;9999;48.780;9.146;2022-07-24T07:21:45;25.70;99.90
7512;DHT22;9999;48.780;9.146;2022-07-24T07:24:12;25.80;99.90
7512;DHT22;9999;48.780;9.146;2022-07-24T07:26:39;26.00;99.90
7512;DHT22;9999;48.780;9.146;2022-07-24T07:29:06;26.00;99.90
7512;DHT22;9999;48.780;9.146;2022-07-24T07:31:32;26.30;99.90
7512;DHT22;9999;48.780;9.146;2022-07-24T07:33:59;26.40;99.90
7512;DHT22;9999;48.780;9.146;2022-07-24T07:36:26;26.60;99.90
7512;DHT22;9999;48.780;9.146;2022-07-24T07:38:54;26.80;99.90
7512;DHT22;9999;48.780;9.146;2022-07-24T07:41:23;27.00;99.90
7512;DHT22;9999;48.780;9.146;2022-07-24T07:43:50;27.20;99.90
7512;DHT22;9999;48.780;9.146;2022-07-24T07:46:17;27.30;99.90
7512;DHT22;9999;48.780;9.146;2022-07-24T07:48:44;27.50;99.90
7512;DHT22;9999;48.780;9.146;2022-07-24T07:51:11;27.30;99.90
7512;DHT22;9999;48.780;9.146;2022-07-24T07:53:38;27.70;99.90
7512;DHT22;9999;48.780;9.146;2022-07-24T07:56:06;27.80;99.90
7512;DHT22;9999;48.780;9.146;2022-07-24T07:58:33;27.80;99.90
7512;DHT22;9999;48.780;9.146;2022-07-24T08:01:00;27.80;99.90
7512;DHT22;9999;48.780;9.146;2022-07-24T08:03:27;27.60;99.90
7512;DHT22;9999;48.780;9.146;2022-07-24T08:05:54;27.60;99.90
7512;DHT22;9999;48.780;9.146;2022-07-24T08:08:20;27.70;99.90
7512;DHT22;9999;48.780;9.146;2022-07-24T08:10:47;27.80;99.90
7512;DHT22;9999;48.780;9.146;2022-07-24T08:13:15;28.00;99.90
7512;DHT22;9999;48.780;9.146;2022-07-24T08:15:43;27.90;99.90
7512;DHT22;9999;48.780;9.146;2022-07-24T08:18:10;27.90;99.90
7512;DHT22;9999;48.780;9.146;2022-07-24T08:20:37;27.70;99.90
7512;DHT22;9999;48.780;9.146;2022-07-24T08:23:04;27.60;99.90
7512;DHT22;9999;48.780;9.146;2022-07-24T08:25:30;27.80;99.90
7512;DHT22;9999;48.780;9.146;2022-07-24T08:27:57;27.90;99.90
7512;DHT22;9999;48.780;9.146;2022-07-24T08:30:25;27.90;99.90
7512;DHT22;9999;48.780;9.146;2022-07-24T08:32:53;28.10;99.90
7512;DHT22;9999;48.780;9.146;2022-07-24T08:35:19;27.90;99.90
7512;DHT22;9999;48.780;9.146;2022-07-24T08:37:46;28.10;99.90
7512;DHT22;9999;48.780;9.146;2022-07-24T08:40:14;28.50;99.90
7512;DHT22;9999;48.780;9.146;2022-07-24T08:42:41;28.70;99.90
7512;DHT22;9999;48.780;9.146;2022-07-24T08:45:08;28.40;99.90
7512;DHT22;9999;48.780;9.146;2022-07-24T08:47:39;28.40;99.90
7512;DHT22;9999;48.780;9.146;2022-07-24T08:50:07;28.60;99.90
7512;DHT22;9999;48.780;9.146;2022-07-24T08:52:35;29.00;99.90
7512;DHT22;9999;48.780;9.146;2022-07-24T08:55:02;28.90;99.90
7512;DHT22;9999;48.780;9.146;2022-07-24T08:57:29;29.10;97.10
7512;DHT22;9999;48.780;9.146;2022-07-24T08:59:56;29.10;97.90
7512;DHT22;9999;48.780;9.146;2022-07-24T09:02:23;29.20;99.60
7512;DHT22;9999;48.780;9.146;2022-07-24T09:04:57;29.60;97.50
7512;DHT22;9999;48.780;9.146;2022-07-24T09:07:27;29.50;96.40
7512;DHT22;9999;48.780;9.146;2022-07-24T09:09:59;29.20;95.40
7512;DHT22;9999;48.780;9.146;2022-07-24T09:12:30;29.20;95.00
7512;DHT22;9999;48.780;9.146;2022-07-24T09:14:58;29.50;96.20
7512;DHT22;9999;48.780;9.146;2022-07-24T09:17:25;29.80;94.80
7512;DHT22;9999;48.780;9.146;2022-07-24T09:19:55;30.00;94.10
7512;DHT22;9999;48.780;9.146;2022-07-24T09:22:31;30.10;93.50
7512;DHT22;9999;48.780;9.146;2022-07-24T09:25:13;29.80;94.50
7512;DHT22;9999;48.780;9.146;2022-07-24T09:27:46;29.80;94.00
7512;DHT22;9999;48.780;9.146;2022-07-24T09:30:26;29.80;93.90
7512;DHT22;9999;48.780;9.146;2022-07-24T09:32:55;29.80;93.00
7512;DHT22;9999;48.780;9.146;2022-07-24T09:35:29;29.50;92.00
7512;DHT22;9999;48.780;9.146;2022-07-24T09:37:58;29.00;91.50
7512;DHT22;9999;48.780;9.146;2022-07-24T09:40:29;28.70;93.90
7512;DHT22;9999;48.780;9.146;2022-07-24T09:43:11;28.50;92.60
7512;DHT22;9999;48.780;9.146;2022-07-24T09:45:54;28.20;92.10
7512;DHT22;9999;48.780;9.146;2022-07-24T09:48:23;27.90;92.20
7512;DHT22;9999;48.780;9.146;2022-07-24T09:50:53;27.90;95.00
7512;DHT22;9999;48.780;9.146;2022-07-24T09:53:21;27.90;93.90
7512;DHT22;9999;48.780;9.146;2022-07-24T09:56:01;27.80;95.50
7512;DHT22;9999;48.780;9.146;2022-07-24T09:58:28;27.80;95.30
7512;DHT22;9999;48.780;9.146;2022-07-24T10:00:56;27.70;94.60
7512;DHT22;9999;48.780;9.146;2022-07-24T10:03:25;27.70;96.00
7512;DHT22;9999;48.780;9.146;2022-07-24T10:05:58;27.70;95.70
7512;DHT22;9999;48.780;9.146;2022-07-24T10:08:26;27.60;95.40
7512;DHT22;9999;48.780;9.146;2022-07-24T10:10:54;27.70;96.20
7512;DHT22;9999;48.780;9.146;2022-07-24T10:13:21;27.70;96.20
7512;DHT22;9999;48.780;9.146;2022-07-24T10:16:10;27.60;95.20
7512;DHT22;9999;48.780;9.146;2022-07-24T10:18:47;27.60;95.00
7512;DHT22;9999;48.780;9.146;2022-07-24T10:21:18;28.10;97.70
7512;DHT22;9999;48.780;9.146;2022-07-24T10:24:11;28.70;96.60
7512;DHT22;9999;48.780;9.146;2022-07-24T10:26:40;29.30;94.20
7512;DHT22;9999;48.780;9.146;2022-07-24T10:29:08;29.60;93.70
7512;DHT22;9999;48.780;9.146;2022-07-24T10:31:36;29.70;93.50
7512;DHT22;9999;48.780;9.146;2022-07-24T10:34:06;30.00;92.90
7512;DHT22;9999;48.780;9.146;2022-07-24T10:36:43;30.20;93.20
7512;DHT22;9999;48.780;9.146;2022-07-24T10:39:16;30.30;88.80
7512;DHT22;9999;48.780;9.146;2022-07-24T10:42:00;30.50;88.50
7512;DHT22;9999;48.780;9.146;2022-07-24T10:44:26;30.70;87.10
7512;DHT22;9999;48.780;9.146;2022-07-24T10:47:04;30.00;86.70
7512;DHT22;9999;48.780;9.146;2022-07-24T10:49:46;30.00;81.20
7512;DHT22;9999;48.780;9.146;2022-07-24T10:52:24;30.10;82.10
7512;DHT22;9999;48.780;9.146;2022-07-24T10:55:19;30.20;82.10
7512;DHT22;9999;48.780;9.146;2022-07-24T10:57:47;30.80;81.10
7512;DHT22;9999;48.780;9.146;2022-07-24T11:00:23;31.00;83.00
7512;DHT22;9999;48.780;9.146;2022-07-24T11:03:01;31.30;79.60
7512;DHT22;9999;48.780;9.146;2022-07-24T11:05:33;31.20;80.60
7512;DHT22;9999;48.780;9.146;2022-07-24T11:08:29;30.80;80.00
7512;DHT22;9999;48.780;9.146;2022-07-24T11:11:08;30.30;80.40
7512;DHT22;9999;48.780;9.146;2022-07-24T11:13:49;30.10;80.50
7512;DHT22;9999;48.780;9.146;2022-07-24T11:16:34;30.00;81.70
7512;DHT22;9999;48.780;9.146;2022-07-24T11:19:30;29.70;82.50
7512;DHT22;9999;48.780;9.146;2022-07-24T11:22:10;29.40;83.70
7512;DHT22;9999;48.780;9.146;2022-07-24T11:25:11;29.20;81.70
7512;DHT22;9999;48.780;9.146;2022-07-24T11:27:44;29.10;82.10
7512;DHT22;9999;48.780;9.146;2022-07-24T11:30:12;29.60;85.60
7512;DHT22;9999;48.780;9.146;2022-07-24T11:32:39;30.10;81.90
7512;DHT22;9999;48.780;9.146;2022-07-24T11:35:07;30.30;79.90
7512;DHT22;9999;48.780;9.146;2022-07-24T11:37:35;30.70;79.10
7512;DHT22;9999;48.780;9.146;2022-07-24T11:40:04;30.90;81.70
7512;DHT22;9999;48.780;9.146;2022-07-24T11:42:36;31.30;76.90
7512;DHT22;9999;48.780;9.146;2022-07-24T11:45:04;31.50;76.30
7512;DHT22;9999;48.780;9.146;2022-07-24T11:47:31;31.50;74.10
7512;DHT22;9999;48.780;9.146;2022-07-24T11:49:59;31.70;77.10
7512;DHT22;9999;48.780;9.146;2022-07-24T11:52:29;32.00;74.40
7512;DHT22;9999;48.780;9.146;2022-07-24T11:55:00;32.10;74.80
7512;DHT22;9999;48.780;9.146;2022-07-24T11:57:29;32.10;70.10
7512;DHT22;9999;48.780;9.146;2022-07-24T11:59:58;32.00;68.20
7512;DHT22;9999;48.780;9.146;2022-07-24T12:02:25;31.80;70.00
7512;DHT22;9999;48.780;9.146;2022-07-24T12:04:53;31.80;67.40
7512;DHT22;9999;48.780;9.146;2022-07-24T12:07:21;31.40;67.90
7512;DHT22;9999;48.780;9.146;2022-07-24T12:09:51;30.80;70.40
7512;DHT22;9999;48.780;9.146;2022-07-24T12:12:23;30.30;72.80
7512;DHT22;9999;48.780;9.146;2022-07-24T12:14:52;30.20;73.30
7512;DHT22;9999;48.780;9.146;2022-07-24T12:17:20;30.50;72.20
7512;DHT22;9999;48.780;9.146;2022-07-24T12:19:52;30.40;71.50
7512;DHT22;9999;48.780;9.146;2022-07-24T12:22:20;30.50;73.30
7512;DHT22;9999;48.780;9.146;2022-07-24T12:24:48;31.00;72.60
7512;DHT22;9999;48.780;9.146;2022-07-24T12:27:36;31.30;67.20
7512;DHT22;9999;48.780;9.146;2022-07-24T12:30:19;31.10;67.60
7512;DHT22;9999;48.780;9.146;2022-07-24T12:32:59;31.00;70.70
7512;DHT22;9999;48.780;9.146;2022-07-24T12:35:27;30.70;73.30
7512;DHT22;9999;48.780;9.146;2022-07-24T12:37:55;30.50;69.80
7512;DHT22;9999;48.780;9.146;2022-07-24T12:40:24;30.30;71.00
7512;DHT22;9999;48.780;9.146;2022-07-24T12:43:03;30.20;72.50
7512;DHT22;9999;48.780;9.146;2022-07-24T12:45:31;30.10;69.40
7512;DHT22;9999;48.780;9.146;2022-07-24T12:48:18;30.20;72.30
7512;DHT22;9999;48.780;9.146;2022-07-24T12:51:05;30.30;69.50
7512;DHT22;9999;48.780;9.146;2022-07-24T12:53:35;30.20;71.40
7512;DHT22;9999;48.780;9.146;2022-07-24T12:56:10;30.30;75.10
7512;DHT22;9999;48.780;9.146;2022-07-24T12:58:53;30.40;72.60
7512;DHT22;9999;48.780;9.146;2022-07-24T13:01:20;30.30;76.30
7512;DHT22;9999;48.780;9.146;2022-07-24T13:03:57;30.40;69.20
7512;DHT22;9999;48.780;9.146;2022-07-24T13:06:32;30.50;70.10
7512;DHT22;9999;48.780;9.146;2022-07-24T13:08:58;30.50;69.70
7512;DHT22;9999;48.780;9.146;2022-07-24T13:11:25;30.80;71.40
7512;DHT22;9999;48.780;9.146;2022-07-24T13:13:52;31.10;71.60
7512;DHT22;9999;48.780;9.146;2022-07-24T13:16:19;31.50;70.60
7512;DHT22;9999;48.780;9.146;2022-07-24T13:18:46;31.80;68.50
7512;DHT22;9999;48.780;9.146;2022-07-24T13:21:14;31.70;68.90
7512;DHT22;9999;48.780;9.146;2022-07-24T13:23:43;31.80;65.30
7512;DHT22;9999;48.780;9.146;2022-07-24T13:26:10;31.80;66.60
7512;DHT22;9999;48.780;9.146;2022-07-24T13:28:37;32.00;64.60
7512;DHT22;9999;48.780;9.146;2022-07-24T13:31:03;32.00;65.20
7512;DHT22;9999;48.780;9.146;2022-07-24T13:33:31;32.20;67.90
7512;DHT22;9999;48.780;9.146;2022-07-24T13:35:58;32.20;66.40
7512;DHT22;9999;48.780;9.146;2022-07-24T13:38:26;32.30;62.20
7512;DHT22;9999;48.780;9.146;2022-07-24T13:40:53;32.20;64.00
7512;DHT22;9999;48.780;9.146;2022-07-24T13:43:20;32.20;65.10
7512;DHT22;9999;48.780;9.146;2022-07-24T13:45:47;32.30;63.40
7512;DHT22;9999;48.780;9.146;2022-07-24T13:48:13;32.10;61.90
7512;DHT22;9999;48.780;9.146;2022-07-24T13:50:40;32.00;65.70
7512;DHT22;9999;48.780;9.146;2022-07-24T13:53:07;32.20;64.00
7512;DHT22;9999;48.780;9.146;2022-07-24T13:55:35;32.30;63.30
7512;DHT22;9999;48.780;9.146;2022-07-24T13:58:02;32.50;62.10
7512;DHT22;9999;48.780;9.146;2022-07-24T14:00:29;32.70;61.80
7512;DHT22;9999;48.780;9.146;2022-07-24T14:02:55;32.60;62.10
7512;DHT22;9999;48.780;9.146;2022-07-24T14:05:22;32.50;64.40
7512;DHT22;9999;48.780;9.146;2022-07-24T14:07:50;32.20;61.70
7512;DHT22;9999;48.780;9.146;2022-07-24T14:10:17;32.20;64.70
7512;DHT22;9999;48.780;9.146;2022-07-24T14:12:45;32.20;60.90
7512;DHT22;9999;48.780;9.146;2022-07-24T14:15:13;32.40;63.40
7512;DHT22;9999;48.780;9.146;2022-07-24T14:17:41;32.00;63.50
7512;DHT22;9999;48.780;9.146;2022-07-24T14:20:09;32.00;63.20
7512;DHT22;9999;48.780;9.146;2022-07-24T14:22:36;32.00;63.90
7512;DHT22;9999;48.780;9.146;2022-07-24T14:25:04;32.10;60.70
7512;DHT22;9999;48.780;9.146;2022-07-24T14:27:32;32.00;60.80
7512;DHT22;9999;48.780;9.146;2022-07-24T14:30:01;32.00;60.60
7512;DHT22;9999;48.780;9.146;2022-07-24T14:32:27;32.00;61.30
7512;DHT22;9999;48.780;9.146;2022-07-24T14:34:54;32.30;62.00
7512;DHT22;9999;48.780;9.146;2022-07-24T14:37:21;32.50;61.50
7512;DHT22;9999;48.780;9.146;2022-07-24T14:39:48;32.40;61.50
7512;DHT22;9999;48.780;9.146;2022-07-24T14:42:15;32.20;60.00
7512;DHT22;9999;48.780;9.146;2022-07-24T14:44:42;31.80;60.80
7512;DHT22;9999;48.780;9.146;2022-07-24T14:47:10;31.80;60.80
7512;DHT22;9999;48.780;9.146;2022-07-24T14:49:37;32.00;62.30
7512;DHT22;9999;48.780;9.146;2022-07-24T14:52:04;32.00;61.40
7512;DHT22;9999;48.780;9.146;2022-07-24T14:54:30;31.90;60.60
7512;DHT22;9999;48.780;9.146;2022-07-24T14:56:57;31.80;60.20
7512;DHT22;9999;48.780;9.146;2022-07-24T14:59:26;32.00;61.40
7512;DHT22;9999;48.780;9.146;2022-07-24T15:01:53;32.10;61.00
7512;DHT22;9999;48.780;9.146;2022-07-24T15:04:21;32.20;61.20
7512;DHT22;9999;48.780;9.146;2022-07-24T15:06:48;32.20;60.80
7512;DHT22;9999;48.780;9.146;2022-07-24T15:09:15;32.10;59.80
7512;DHT22;9999;48.780;9.146;2022-07-24T15:11:42;32.10;59.40
7512;DHT22;9999;48.780;9.146;2022-07-24T15:14:09;32.00;59.10
7512;DHT22;9999;48.780;9.146;2022-07-24T15:16:36;31.80;59.60
7512;DHT22;9999;48.780;9.146;2022-07-24T15:19:03;31.70;60.40
7512;DHT22;9999;48.780;9.146;2022-07-24T15:21:31;31.60;60.40
7512;DHT22;9999;48.780;9.146;2022-07-24T15:23:58;31.60;59.00
7512;DHT22;9999;48.780;9.146;2022-07-24T15:26:25;31.90;58.80
7512;DHT22;9999;48.780;9.146;2022-07-24T15:28:51;32.00;59.00
7512;DHT22;9999;48.780;9.146;2022-07-24T15:31:18;31.80;59.30
7512;DHT22;9999;48.780;9.146;2022-07-24T15:33:47;32.00;56.50
7512;DHT22;9999;48.780;9.146;2022-07-24T15:36:14;32.00;57.80
7512;DHT22;9999;48.780;9.146;2022-07-24T15:38:42;32.10;59.60
7512;DHT22;9999;48.780;9.146;2022-07-24T15:41:09;32.00;58.00
7512;DHT22;9999;48.780;9.146;2022-07-24T15:43:36;31.90;59.60
7512;DHT22;9999;48.780;9.146;2022-07-24T15:46:03;31.80;57.60
7512;DHT22;9999;48.780;9.146;2022-07-24T15:48:30;32.00;57.70
7512;DHT22;9999;48.780;9.146;2022-07-24T15:50:56;31.80;56.30
7512;DHT22;9999;48.780;9.146;2022-07-24T15:53:23;31.70;57.50
7512;DHT22;9999;48.780;9.146;2022-07-24T15:55:51;31.80;58.90
7512;DHT22;9999;48.780;9.146;2022-07-24T15:58:18;31.60;58.50
7512;DHT22;9999;48.780;9.146;2022-07-24T16:00:45;31.70;59.20
7512;DHT22;9999;48.780;9.146;2022-07-24T16:03:12;31.90;57.80
7512;DHT22;9999;48.780;9.146;2022-07-24T16:05:38;31.70;56.80
7512;DHT22;9999;48.780;9.146;2022-07-24T16:08:05;31.70;57.80
7512;DHT22;9999;48.780;9.146;2022-07-24T16:10:34;31.70;59.80
7512;DHT22;9999;48.780;9.146;2022-07-24T16:13:02;31.70;58.40